Time;durP1;ratioP1;P1;durP2;ratioP2;P2;SDS_P1;SDS_P2;PMS_P1;PMS_P2;Temp;Humidity;BMP_temperature;BMP_pressure;BME280_temperature;BME280_humidity;BME280_pressure;Samples;Min_cycle;Max_cycle;Signal;HPM_P1;HPM_P2
2021/10/29 00:00:54;;;;;;;16.40;14.43;;;10.00;99.90;;;;;;5028398;28;20414;-69
2021/10/29 00:03:22;;;;;;;15.73;14.03;;;10.10;99.90;;;;;;5028336;28;20255;-69
2021/10/29 00:05:47;;;;;;;17.40;14.37;;;10.10;99.90;;;;;;5028792;28;20545;-71
2021/10/29 00:08:13;;;;;;;19.07;14.57;;;10.10;99.90;;;;;;5028123;28;20400;-70
2021/10/29 00:10:39;;;;;;;16.83;14.60;;;10.10;99.90;;;;;;5019973;28;20168;-69
2021/10/29 00:13:05;;;;;;;14.33;12.67;;;10.10;99.90;;;;;;5015156;28;20252;-70
2021/10/29 00:15:31;;;;;;;16.03;12.63;;;10.10;99.90;;;;;;5015140;28;20852;-69
2021/10/29 00:17:57;;;;;;;17.10;14.57;;;10.10;99.90;;;;;;5014829;28;20403;-70
2021/10/29 00:20:23;;;;;;;17.27;14.27;;;10.10;99.90;;;;;;5014777;28;20915;-70
2021/10/29 00:22:49;;;;;;;16.20;13.93;;;10.10;99.90;;;;;;5015398;28;20179;-70
2021/10/29 00:25:14;;;;;;;17.77;14.37;;;10.10;99.90;;;;;;5014954;28;20272;-70
2021/10/29 00:27:40;;;;;;;14.63;13.07;;;10.20;99.90;;;;;;5015854;28;20159;-69
2021/10/29 00:30:06;;;;;;;16.90;14.40;;;10.20;99.90;;;;;;5028644;28;20175;-70
2021/10/29 00:32:32;;;;;;;13.20;11.60;;;10.20;99.90;;;;;;5032317;28;20254;-70
2021/10/29 00:34:58;;;;;;;15.43;12.30;;;10.20;99.90;;;;;;5034379;28;20425;-69
2021/10/29 00:37:24;;;;;;;16.90;13.03;;;10.20;99.90;;;;;;5034287;28;20167;-69
2021/10/29 00:39:49;;;;;;;15.20;13.00;;;10.30;99.90;;;;;;5019465;28;20540;-69
2021/10/29 00:42:15;;;;;;;15.03;12.83;;;10.30;99.90;;;;;;5014398;28;20396;-70
2021/10/29 00:44:40;;;;;;;14.20;12.00;;;10.30;99.90;;;;;;5014473;28;20156;-70
2021/10/29 00:47:06;;;;;;;15.20;12.70;;;10.30;99.90;;;;;;5014458;28;20161;-70
2021/10/29 00:49:32;;;;;;;14.53;12.60;;;10.30;99.90;;;;;;5014466;28;20169;-69
2021/10/29 00:51:57;;;;;;;16.43;12.20;;;10.40;99.90;;;;;;5014258;28;20167;-69
2021/10/29 00:54:23;;;;;;;12.13;10.83;;;10.40;99.90;;;;;;5014022;28;20540;-69
2021/10/29 00:56:49;;;;;;;13.27;11.70;;;10.40;99.90;;;;;;5014834;28;20724;-69
2021/10/29 00:59:18;;;;;;;14.83;12.73;;;10.40;99.90;;;;;;5014226;28;20796;-69
2021/10/29 01:01:45;;;;;;;19.33;12.50;;;10.40;99.90;;;;;;5014390;28;20888;-69
2021/10/29 01:04:11;;;;;;;15.73;12.97;;;10.40;99.90;;;;;;5014214;28;20407;-70
2021/10/29 01:06:37;;;;;;;16.47;13.87;;;10.50;99.90;;;;;;5014208;28;20400;-69
2021/10/29 01:09:03;;;;;;;14.27;12.77;;;10.50;99.90;;;;;;5024370;28;20268;-69
2021/10/29 01:11:30;;;;;;;18.00;13.90;;;10.50;99.90;;;;;;5033510;28;20419;-69
2021/10/29 01:13:56;;;;;;;15.77;13.10;;;10.50;99.90;;;;;;5032512;28;20517;-70
2021/10/29 01:16:22;;;;;;;13.70;12.20;;;10.50;99.90;;;;;;5033503;28;20493;-69
2021/10/29 01:18:48;;;;;;;16.53;12.70;;;10.50;99.90;;;;;;5033327;28;20563;-70
2021/10/29 01:21:15;;;;;;;16.80;12.97;;;10.50;99.90;;;;;;5033047;28;20399;-70
2021/10/29 01:23:40;;;;;;;18.10;13.37;;;10.50;99.90;;;;;;5033027;28;20180;-70
2021/10/29 01:26:10;;;;;;;15.20;13.37;;;10.50;99.90;;;;;;5033401;28;20419;-69
2021/10/29 01:28:36;;;;;;;17.80;12.73;;;10.50;99.90;;;;;;5021785;28;20669;-70
2021/10/29 01:31:01;;;;;;;14.93;11.20;;;10.50;99.90;;;;;;5016031;28;20510;-70
2021/10/29 01:33:29;;;;;;;17.10;12.13;;;10.60;99.90;;;;;;5013523;28;20160;-69
2021/10/29 01:35:55;;;;;;;13.70;11.27;;;10.60;99.90;;;;;;5013479;28;20205;-69
2021/10/29 01:38:23;;;;;;;11.90;10.70;;;10.60;99.90;;;;;;5013398;28;20807;-69
2021/10/29 01:40:48;;;;;;;12.73;11.43;;;10.60;99.90;;;;;;5013425;28;20391;-70
2021/10/29 01:43:14;;;;;;;13.10;10.63;;;10.60;99.90;;;;;;5013347;28;20396;-69
2021/10/29 01:45:39;;;;;;;13.60;11.20;;;10.60;99.90;;;;;;5013299;28;20732;-70
2021/10/29 01:48:05;;;;;;;12.57;11.30;;;10.60;99.90;;;;;;5029818;28;20187;-69
2021/10/29 01:50:31;;;;;;;12.13;10.80;;;10.60;99.90;;;;;;5033035;28;20183;-71
2021/10/29 01:52:56;;;;;;;11.93;10.73;;;10.60;99.90;;;;;;5032876;28;20239;-69
2021/10/29 01:55:22;;;;;;;13.33;11.10;;;10.60;99.90;;;;;;5033149;28;20254;-70
2021/10/29 01:57:47;;;;;;;13.97;10.30;;;10.60;99.90;;;;;;5027811;28;20184;-70
2021/10/29 02:00:13;;;;;;;11.20;10.00;;;10.60;99.90;;;;;;5012898;28;20208;-70
2021/10/29 02:02:40;;;;;;;12.90;10.63;;;10.60;99.90;;;;;;5013000;28;20181;-71
2021/10/29 02:05:07;;;;;;;12.07;9.80;;;10.60;99.90;;;;;;5029831;28;20411;-70
2021/10/29 02:07:33;;;;;;;13.43;10.80;;;10.60;99.90;;;;;;5032524;28;20391;-70
2021/10/29 02:09:58;;;;;;;10.57;9.23;;;10.60;99.90;;;;;;5032635;28;20395;-69
2021/10/29 02:12:24;;;;;;;13.90;10.47;;;10.60;99.90;;;;;;5032560;28;20388;-70
2021/10/29 02:14:49;;;;;;;15.43;10.87;;;10.70;99.90;;;;;;5032964;28;20275;-69
2021/10/29 02:17:15;;;;;;;13.00;10.27;;;10.70;99.90;;;;;;5032698;28;20168;-69
2021/10/29 02:19:40;;;;;;;13.40;11.17;;;10.70;99.90;;;;;;5032466;28;20728;-70
2021/10/29 02:22:06;;;;;;;11.03;9.93;;;10.70;99.90;;;;;;5031659;28;20172;-69
2021/10/29 02:24:34;;;;;;;12.57;10.67;;;10.70;99.90;;;;;;5032357;28;20536;-69
2021/10/29 02:27:00;;;;;;;12.63;10.40;;;10.70;99.90;;;;;;5032345;28;20164;-70
2021/10/29 02:29:26;;;;;;;14.63;11.43;;;10.60;99.90;;;;;;5013180;28;20470;-69
2021/10/29 02:31:52;;;;;;;12.77;10.57;;;10.70;99.90;;;;;;5011636;28;20423;-70
2021/10/29 02:34:17;;;;;;;12.43;10.07;;;10.60;99.90;;;;;;5011608;28;20203;-69
2021/10/29 02:36:43;;;;;;;11.30;9.20;;;10.70;99.90;;;;;;5012356;28;20170;-70
2021/10/29 02:39:09;;;;;;;12.83;10.83;;;10.70;99.90;;;;;;5012799;28;20244;-66
2021/10/29 02:41:34;;;;;;;15.40;10.13;;;10.70;99.90;;;;;;5012312;28;20167;-67
2021/10/29 02:44:00;;;;;;;13.17;10.30;;;10.70;99.90;;;;;;5012724;28;20234;-67
2021/10/29 02:46:26;;;;;;;13.67;11.23;;;10.70;99.90;;;;;;5012387;28;20397;-67
2021/10/29 02:48:52;;;;;;;13.97;10.40;;;10.70;99.90;;;;;;5012488;28;20405;-67
2021/10/29 02:51:18;;;;;;;13.30;10.57;;;10.70;99.90;;;;;;5012549;28;20758;-67
2021/10/29 02:53:44;;;;;;;12.77;10.60;;;10.80;99.90;;;;;;5012445;28;20187;-67
2021/10/29 02:56:09;;;;;;;16.50;10.70;;;10.70;99.90;;;;;;5012737;28;20699;-67
2021/10/29 02:58:35;;;;;;;14.97;10.67;;;10.70;99.90;;;;;;5011880;28;20214;-69
2021/10/29 03:01:01;;;;;;;12.60;10.70;;;10.70;99.90;;;;;;5025210;28;20454;-70
2021/10/29 03:03:27;;;;;;;14.97;11.17;;;10.70;99.90;;;;;;5031939;28;20156;-69
2021/10/29 03:05:53;;;;;;;13.40;11.07;;;10.80;99.90;;;;;;5031662;28;20482;-70
2021/10/29 03:08:18;;;;;;;12.10;10.33;;;10.70;99.90;;;;;;5031923;28;20227;-70
2021/10/29 03:10:45;;;;;;;11.30;9.70;;;10.70;99.90;;;;;;5031586;28;20267;-69
2021/10/29 03:13:10;;;;;;;11.77;9.33;;;10.70;99.90;;;;;;5013561;28;20188;-69
2021/10/29 03:15:36;;;;;;;11.90;9.43;;;10.70;99.90;;;;;;5012280;28;20400;-70
2021/10/29 03:18:02;;;;;;;12.70;10.20;;;10.70;99.90;;;;;;5011733;28;20271;-69
2021/10/29 03:20:28;;;;;;;15.40;11.00;;;10.70;99.90;;;;;;5011969;28;20623;-69
2021/10/29 03:22:53;;;;;;;13.27;10.20;;;10.70;99.90;;;;;;5011927;28;20916;-69
2021/10/29 03:25:19;;;;;;;11.20;10.07;;;10.70;99.90;;;;;;5011710;28;20531;-70
2021/10/29 03:27:45;;;;;;;12.90;10.43;;;10.80;99.90;;;;;;5019944;28;20248;-70
2021/10/29 03:30:11;;;;;;;10.70;9.60;;;10.80;99.90;;;;;;5014003;28;20652;-69
2021/10/29 03:32:37;;;;;;;13.07;9.63;;;10.80;99.90;;;;;;5011924;28;20647;-69
2021/10/29 03:35:03;;;;;;;12.60;10.50;;;10.80;99.90;;;;;;5011824;28;20407;-69
2021/10/29 03:45:46;;;;;;;9.80;8.73;;;10.80;99.90;;;;;;5138480;27;20435;-69
2021/10/29 03:48:14;;;;;;;11.97;9.37;;;10.80;99.90;;;;;;5112173;28;20408;-70
2021/10/29 03:50:44;;;;;;;15.40;10.30;;;10.80;99.90;;;;;;5123703;28;20418;-70
2021/10/29 03:53:25;;;;;;;12.63;10.20;;;10.80;99.90;;;;;;5117215;28;20456;-71
2021/10/29 03:55:53;;;;;;;12.00;10.70;;;10.80;99.90;;;;;;5114504;28;20433;-71
2021/10/29 03:58:19;;;;;;;13.10;10.50;;;10.90;99.90;;;;;;5119798;28;20839;-68
2021/10/29 04:00:44;;;;;;;14.20;10.43;;;10.90;99.90;;;;;;5115217;28;20421;-69
2021/10/29 04:03:10;;;;;;;13.57;10.13;;;10.90;99.90;;;;;;5118699;27;20707;-70
2021/10/29 04:05:36;;;;;;;12.13;9.60;;;10.90;99.90;;;;;;5128638;27;20168;-70
2021/10/29 04:08:02;;;;;;;12.87;10.30;;;10.90;99.90;;;;;;5128403;28;20598;-70
2021/10/29 04:10:30;;;;;;;14.03;10.67;;;11.00;99.90;;;;;;5128100;27;20648;-69
2021/10/29 04:12:57;;;;;;;11.93;9.90;;;11.00;99.90;;;;;;5128029;27;20386;-69
2021/10/29 04:15:23;;;;;;;13.20;10.87;;;11.00;99.90;;;;;;5127958;28;20886;-70
2021/10/29 04:17:49;;;;;;;13.27;10.80;;;11.00;99.90;;;;;;5127819;27;20524;-70
2021/10/29 04:20:15;;;;;;;11.40;9.23;;;11.00;99.90;;;;;;5126993;27;20229;-70
2021/10/29 04:22:41;;;;;;;13.33;10.90;;;11.10;99.90;;;;;;5127849;28;20474;-70
2021/10/29 04:25:07;;;;;;;11.87;10.30;;;11.10;99.90;;;;;;5127758;27;20390;-70
2021/10/29 04:27:36;;;;;;;13.80;10.17;;;11.10;99.90;;;;;;5118264;27;20416;-69
2021/10/29 04:30:10;;;;;;;13.57;9.50;;;11.10;99.90;;;;;;5112811;28;20416;-70
2021/10/29 04:32:35;;;;;;;11.53;9.53;;;11.10;99.90;;;;;;5118166;28;20439;-71
2021/10/29 04:35:01;;;;;;;13.10;11.30;;;11.10;99.90;;;;;;5116491;28;20423;-69
2021/10/29 04:37:26;;;;;;;13.20;10.27;;;11.10;99.90;;;;;;5109432;28;20251;-69
2021/10/29 04:39:54;;;;;;;15.17;10.03;;;11.10;99.90;;;;;;5114181;28;20238;-68
2021/10/29 04:42:20;;;;;;;11.63;9.77;;;11.20;99.90;;;;;;5122920;28;20177;-69
2021/10/29 04:44:46;;;;;;;11.73;10.30;;;11.20;99.90;;;;;;5114565;28;20916;-69
2021/10/29 04:47:12;;;;;;;12.10;9.23;;;11.20;99.90;;;;;;5121170;27;20429;-69
2021/10/29 04:49:37;;;;;;;10.47;8.97;;;11.20;99.90;;;;;;5113408;28;20426;-69
2021/10/29 04:52:03;;;;;;;13.77;10.10;;;11.20;99.90;;;;;;5094844;28;20154;-68
2021/10/29 04:54:29;;;;;;;11.07;9.83;;;11.10;99.90;;;;;;5095512;28;20183;-69
2021/10/29 04:56:54;;;;;;;11.10;9.00;;;11.20;99.90;;;;;;5094801;28;20389;-68
2021/10/29 04:59:20;;;;;;;10.90;9.60;;;11.20;99.90;;;;;;5094371;28;20678;-70
2021/10/29 05:01:46;;;;;;;10.80;8.73;;;11.20;99.90;;;;;;5114984;28;20218;-69
2021/10/29 05:04:13;;;;;;;13.20;10.70;;;11.20;99.90;;;;;;5115017;28;20147;-69
2021/10/29 05:06:39;;;;;;;11.30;8.80;;;11.20;99.90;;;;;;5100530;28;20465;-70
2021/10/29 05:09:05;;;;;;;10.10;8.97;;;11.10;99.90;;;;;;5094216;28;20826;-69
2021/10/29 05:11:30;;;;;;;14.40;8.70;;;11.10;99.90;;;;;;5095118;28;20179;-68
2021/10/29 05:13:56;;;;;;;13.60;10.10;;;11.10;99.90;;;;;;5094483;28;20246;-69
2021/10/29 05:16:23;;;;;;;10.40;9.23;;;11.10;99.90;;;;;;5100544;28;20186;-69
2021/10/29 05:18:48;;;;;;;11.90;9.77;;;11.10;99.90;;;;;;5094749;28;21306;-69
2021/10/29 05:21:14;;;;;;;12.07;8.40;;;11.10;99.90;;;;;;5092834;28;20412;-69
2021/10/29 05:23:39;;;;;;;14.10;10.00;;;11.20;99.90;;;;;;5093499;28;20171;-69
2021/10/29 05:26:05;;;;;;;12.87;9.10;;;11.10;99.90;;;;;;5093221;28;20254;-69
2021/10/29 05:28:31;;;;;;;12.33;9.60;;;11.10;99.90;;;;;;5106469;28;20199;-70
2021/10/29 05:30:57;;;;;;;10.93;8.67;;;11.10;99.90;;;;;;5108432;28;20200;-69
2021/10/29 05:33:22;;;;;;;10.70;8.53;;;11.10;99.90;;;;;;5114151;28;20539;-69
2021/10/29 05:35:48;;;;;;;9.83;8.90;;;11.10;99.90;;;;;;5114452;28;20606;-70
2021/10/29 05:38:14;;;;;;;11.47;10.00;;;11.10;99.90;;;;;;5112514;28;20201;-68
2021/10/29 05:40:39;;;;;;;10.77;8.80;;;11.10;99.90;;;;;;5112821;28;20193;-69
2021/10/29 05:43:05;;;;;;;10.90;8.97;;;11.10;99.90;;;;;;5112790;28;20155;-69
2021/10/29 05:45:33;;;;;;;12.70;9.33;;;11.10;99.90;;;;;;5099551;28;20193;-69
2021/10/29 05:48:03;;;;;;;16.33;9.70;;;11.10;99.90;;;;;;5092013;28;20151;-70
2021/10/29 05:50:29;;;;;;;11.53;9.77;;;11.00;99.90;;;;;;5090021;28;20389;-70
2021/10/29 05:52:55;;;;;;;13.30;9.63;;;11.00;99.90;;;;;;5091929;28;20477;-68
2021/10/29 05:55:21;;;;;;;10.87;9.20;;;11.00;99.90;;;;;;5093205;28;20158;-70
2021/10/29 05:57:49;;;;;;;13.90;10.17;;;11.10;99.90;;;;;;5101081;28;20257;-71
2021/10/29 06:00:17;;;;;;;10.60;9.50;;;11.00;99.90;;;;;;5101061;28;20225;-69
2021/10/29 06:02:44;;;;;;;11.47;9.73;;;11.10;99.90;;;;;;5099205;28;20525;-69
2021/10/29 06:05:10;;;;;;;11.43;9.23;;;11.10;99.90;;;;;;5099421;28;20441;-68
2021/10/29 06:07:36;;;;;;;14.50;11.10;;;11.10;99.90;;;;;;5105988;28;20421;-69
2021/10/29 06:10:05;;;;;;;12.60;10.17;;;11.00;99.90;;;;;;5096414;28;20419;-69
2021/10/29 06:12:33;;;;;;;12.07;10.17;;;11.10;99.90;;;;;;5092311;28;20421;-70
2021/10/29 06:14:59;;;;;;;13.43;9.60;;;11.00;99.90;;;;;;5102488;28;20419;-69
2021/10/29 06:17:27;;;;;;;11.27;9.40;;;11.00;99.90;;;;;;5107069;28;20384;-69
2021/10/29 06:19:53;;;;;;;11.97;9.70;;;11.00;99.90;;;;;;5093161;28;20222;-69
2021/10/29 06:24:57;;;;;;;11.77;9.73;;;11.00;99.90;;;;;;5068931;28;20512;-70
2021/10/29 06:30:00;;;;;;;11.80;8.40;;;11.00;99.90;;;;;;5127883;27;21123;-70
2021/10/29 06:32:26;;;;;;;11.67;9.70;;;11.10;99.90;;;;;;5101543;28;20432;-72
2021/10/29 06:34:52;;;;;;;12.70;9.37;;;11.00;99.90;;;;;;5094237;28;20194;-70
2021/10/29 06:37:18;;;;;;;10.33;8.60;;;11.10;99.90;;;;;;5088368;28;20425;-69
2021/10/29 06:39:47;;;;;;;14.07;9.53;;;11.10;99.90;;;;;;5089029;28;20396;-69
2021/10/29 06:42:20;;;;;;;13.07;10.47;;;11.10;99.90;;;;;;5089235;28;20592;-69
2021/10/29 06:45:02;;;;;;;12.10;9.40;;;11.10;99.90;;;;;;5088872;28;20389;-70
2021/10/29 07:01:23;;;;;;;12.53;9.67;;;11.10;99.90;;;;;;5087217;28;20424;-69
2021/10/29 07:42:11;;;;;;;11.90;9.70;;;11.50;99.90;;;;;;5115353;27;20410;-70
2021/10/29 07:44:38;;;;;;;10.40;9.33;;;11.50;99.90;;;;;;5124642;27;20424;-69
2021/10/29 07:47:04;;;;;;;10.50;9.40;;;11.60;99.90;;;;;;5118992;27;20191;-69
2021/10/29 07:49:30;;;;;;;10.50;9.40;;;11.60;99.90;;;;;;5115235;27;20926;-68
2021/10/29 07:51:57;;;;;;;13.73;9.40;;;11.70;99.90;;;;;;5123261;27;20609;-69
2021/10/29 07:54:25;;;;;;;12.60;10.03;;;11.70;99.90;;;;;;5127470;27;20447;-70
2021/10/29 07:56:50;;;;;;;14.83;10.47;;;11.80;99.90;;;;;;5128285;27;20894;-69
2021/10/29 07:59:18;;;;;;;10.93;9.83;;;11.80;99.90;;;;;;5121308;27;20472;-69
2021/10/29 08:01:44;;;;;;;11.47;9.67;;;11.80;99.90;;;;;;5108751;28;20174;-69
2021/10/29 08:04:10;;;;;;;13.93;9.50;;;11.90;99.90;;;;;;5106569;28;20931;-70
2021/10/29 08:06:36;;;;;;;13.00;8.77;;;11.90;99.90;;;;;;5112367;28;20212;-70
2021/10/29 08:09:04;;;;;;;10.77;9.30;;;11.90;99.90;;;;;;5112150;28;20407;-70
2021/10/29 08:11:30;;;;;;;14.30;8.50;;;11.90;99.90;;;;;;5112712;28;20195;-69
2021/10/29 08:13:56;;;;;;;10.33;9.30;;;12.00;99.90;;;;;;5111820;28;20444;-69
2021/10/29 08:16:23;;;;;;;13.27;10.40;;;12.00;99.90;;;;;;5107149;28;20214;-68
2021/10/29 08:18:48;;;;;;;10.77;9.67;;;12.00;99.90;;;;;;5104763;28;20174;-70
2021/10/29 08:21:14;;;;;;;12.67;10.73;;;12.00;99.90;;;;;;5108868;28;20424;-69
2021/10/29 08:23:41;;;;;;;13.30;9.73;;;12.00;99.90;;;;;;5110079;28;20549;-68
2021/10/29 08:26:11;;;;;;;11.07;9.90;;;12.00;99.90;;;;;;5091486;28;20269;-69
2021/10/29 08:28:37;;;;;;;12.67;9.20;;;12.00;99.90;;;;;;5087476;28;20417;-68
2021/10/29 08:31:02;;;;;;;10.40;9.27;;;12.10;99.90;;;;;;5092370;28;20900;-70
2021/10/29 08:33:28;;;;;;;10.70;9.60;;;12.10;99.90;;;;;;5086998;28;20543;-70
2021/10/29 08:35:54;;;;;;;11.30;9.30;;;12.10;99.90;;;;;;5090641;28;20186;-69
2021/10/29 08:38:21;;;;;;;11.37;9.37;;;12.00;99.90;;;;;;5090707;28;20588;-69
2021/10/29 08:40:48;;;;;;;10.50;9.40;;;12.10;99.90;;;;;;5090648;28;20494;-70
2021/10/29 08:43:14;;;;;;;12.77;9.70;;;12.10;99.90;;;;;;5091306;28;20408;-68
2021/10/29 08:45:41;;;;;;;10.93;9.60;;;12.10;99.90;;;;;;5092830;28;20784;-69
2021/10/29 08:48:07;;;;;;;11.20;9.57;;;12.10;99.90;;;;;;5088212;28;20576;-71
2021/10/29 08:50:33;;;;;;;11.70;9.43;;;12.20;99.90;;;;;;5087008;28;20478;-69
2021/10/29 08:52:59;;;;;;;10.97;9.47;;;12.20;99.90;;;;;;5097205;28;20459;-68
2021/10/29 08:55:27;;;;;;;12.47;9.83;;;12.30;99.90;;;;;;5088667;28;20416;-69
2021/10/29 08:57:53;;;;;;;13.40;10.70;;;12.30;99.90;;;;;;5088890;28;20276;-70
2021/10/29 09:00:24;;;;;;;11.33;9.30;;;12.40;99.90;;;;;;5091413;28;20436;-70
2021/10/29 09:03:06;;;;;;;14.33;8.87;;;12.50;99.90;;;;;;5093926;28;20840;-72
2021/10/29 09:08:21;;;;;;;10.67;9.53;;;12.60;99.90;;;;;;5044413;27;20544;-69
2021/10/29 09:32:24;;;;;;;10.80;9.67;;;12.80;99.90;;;;;;5069114;28;20532;-69
2021/10/29 09:34:59;;;;;;;11.27;8.63;;;12.90;99.90;;;;;;5083064;28;20397;-70
2021/10/29 09:37:34;;;;;;;10.00;8.07;;;12.90;99.90;;;;;;5072120;28;20799;-69
2021/10/29 09:40:01;;;;;;;8.70;7.60;;;13.00;99.90;;;;;;5068324;28;20425;-69
2021/10/29 09:42:35;;;;;;;10.70;8.10;;;13.10;99.90;;;;;;5063565;28;20462;-69
2021/10/29 09:45:11;;;;;;;10.23;7.90;;;13.10;99.90;;;;;;5065093;28;20469;-70
2021/10/29 09:47:37;;;;;;;8.73;7.70;;;13.20;99.90;;;;;;5064150;28;20834;-70
2021/10/29 09:50:25;;;;;;;8.47;7.40;;;13.20;99.90;;;;;;5070695;28;20419;-69
2021/10/29 09:53:04;;;;;;;9.37;7.60;;;13.30;99.90;;;;;;5066962;28;20418;-70
2021/10/29 09:58:18;;;;;;;10.97;7.67;;;13.30;99.90;;;;;;5071101;28;20525;-69
2021/10/29 10:00:44;;;;;;;9.00;7.60;;;13.30;99.90;;;;;;5044528;28;20423;-69
2021/10/29 10:03:12;;;;;;;8.33;7.47;;;13.30;99.90;;;;;;5050213;28;20418;-69
2021/10/29 10:05:38;;;;;;;8.23;7.13;;;13.30;99.90;;;;;;5052761;28;20839;-69
2021/10/29 10:08:05;;;;;;;9.37;8.40;;;13.40;99.90;;;;;;5038641;28;20410;-69
2021/10/29 10:10:33;;;;;;;8.50;7.50;;;13.40;99.90;;;;;;5043501;28;20486;-70
2021/10/29 10:12:59;;;;;;;9.33;7.80;;;13.40;99.90;;;;;;5044423;28;20412;-69
2021/10/29 10:15:26;;;;;;;9.13;6.93;;;13.40;99.90;;;;;;5054401;28;20410;-71
2021/10/29 10:17:52;;;;;;;10.40;7.90;;;13.40;99.90;;;;;;5052373;28;20446;-71
2021/10/29 10:20:19;;;;;;;9.27;7.30;;;13.40;99.90;;;;;;5052850;28;20970;-70
2021/10/29 10:22:49;;;;;;;7.73;6.80;;;13.40;99.90;;;;;;5056232;28;20410;-70
2021/10/29 10:25:42;;;;;;;12.23;8.13;;;13.50;99.90;;;;;;5061834;28;20428;-71
2021/10/29 10:47:45;;;;;;;12.10;9.30;;;13.80;99.90;;;;;;5136403;27;20408;-70
2021/10/29 10:50:18;;;;;;;7.83;7.03;;;13.90;99.90;;;;;;5134135;27;20951;-69
2021/10/29 10:53:15;;;;;;;6.30;5.70;;;14.00;99.90;;;;;;5141464;27;20400;-71
2021/10/29 10:59:02;;;;;;;8.20;6.87;;;14.00;99.90;;;;;;5129116;27;20468;-70
2021/10/29 11:10:10;;;;;;;10.10;9.10;;;14.10;99.90;;;;;;5096006;28;20597;-70
2021/10/29 11:15:24;;;;;;;12.77;9.80;;;14.10;99.90;;;;;;5089508;28;20541;-70
2021/10/29 11:28:30;;;;;;;6.60;5.97;;;14.30;99.90;;;;;;5070754;28;20915;-72
2021/10/29 11:30:57;;;;;;;6.33;5.10;;;14.40;99.90;;;;;;5065365;28;20494;-70
2021/10/29 11:33:24;;;;;;;7.37;5.50;;;14.40;99.90;;;;;;5051319;28;20432;-69
2021/10/29 11:36:08;;;;;;;5.63;5.07;;;14.50;99.90;;;;;;5056302;28;20856;-69
2021/10/29 11:38:36;;;;;;;9.40;5.70;;;14.50;99.90;;;;;;5067065;28;20423;-70
2021/10/29 11:41:08;;;;;;;9.30;6.57;;;14.50;99.90;;;;;;5081867;28;20959;-72
2021/10/29 11:43:35;;;;;;;7.10;5.10;;;14.50;99.90;;;;;;5080937;28;20416;-70
2021/10/29 11:46:04;;;;;;;7.33;5.80;;;14.60;99.90;;;;;;5077312;28;20423;-69
2021/10/29 11:48:32;;;;;;;8.60;7.37;;;14.60;99.90;;;;;;5068842;28;20419;-70
2021/10/29 11:51:08;;;;;;;10.00;6.07;;;14.70;99.90;;;;;;5072386;28;20453;-69
2021/10/29 11:53:40;;;;;;;6.43;5.23;;;14.80;99.90;;;;;;5081986;28;20829;-69
2021/10/29 11:56:20;;;;;;;8.70;5.07;;;14.80;99.90;;;;;;5078165;28;20436;-70
2021/10/29 11:58:53;;;;;;;8.23;4.77;;;14.80;99.90;;;;;;5065834;28;20439;-69
2021/10/29 12:09:35;;;;;;;6.13;5.53;;;15.00;99.90;;;;;;5055538;28;20422;-69
2021/10/29 12:12:09;;;;;;;8.20;5.67;;;15.10;99.90;;;;;;5061673;28;20447;-69
2021/10/29 12:14:37;;;;;;;7.00;5.60;;;15.20;99.90;;;;;;5061474;28;20186;-69
2021/10/29 12:17:06;;;;;;;9.97;7.70;;;15.20;99.90;;;;;;5062353;28;20429;-71
2021/10/29 12:19:36;;;;;;;7.23;5.80;;;15.20;99.90;;;;;;5050803;28;20411;-70
2021/10/29 12:22:11;;;;;;;7.30;5.83;;;15.20;99.90;;;;;;5050992;28;20453;-69
2021/10/29 12:24:45;;;;;;;5.70;4.70;;;15.20;99.90;;;;;;5064579;28;20449;-69
2021/10/29 12:27:15;;;;;;;6.27;4.80;;;15.20;99.90;;;;;;5052097;28;20432;-69
2021/10/29 12:29:43;;;;;;;6.10;5.10;;;15.20;99.90;;;;;;5057927;28;20891;-69
2021/10/29 12:32:36;;;;;;;6.43;4.87;;;15.20;99.90;;;;;;5049436;28;20484;-71
2021/10/29 12:38:06;;;;;;;7.33;6.03;;;15.20;99.90;;;;;;5060687;28;20437;-67
2021/10/29 12:51:57;;;;;;;6.00;5.40;;;15.20;99.90;;;;;;5056450;28;20396;-68
2021/10/29 13:02:55;;;;;;;7.33;5.40;;;15.30;99.90;;;;;;5057025;28;20501;-68
2021/10/29 13:05:21;;;;;;;5.37;4.87;;;15.30;99.90;;;;;;5061339;28;20405;-68
2021/10/29 13:07:47;;;;;;;6.70;6.10;;;15.40;99.90;;;;;;5043316;28;20429;-68
2021/10/29 13:10:13;;;;;;;8.57;6.10;;;15.40;99.90;;;;;;5049010;28;20172;-68
2021/10/29 13:12:53;;;;;;;6.33;5.50;;;15.40;99.90;;;;;;5054175;28;20445;-69
2021/10/29 13:15:20;;;;;;;6.47;5.30;;;15.50;99.90;;;;;;5041047;28;20501;-68
2021/10/29 13:18:06;;;;;;;8.37;6.73;;;15.60;99.90;;;;;;5046948;28;20466;-69
2021/10/29 13:20:57;;;;;;;6.27;5.67;;;15.60;99.90;;;;;;5036156;28;20423;-70
2021/10/29 13:36:54;;;;;;;5.47;4.57;;;15.80;99.90;;;;;;5062686;28;20509;-70
2021/10/29 13:53:31;;;;;;;4.50;3.87;;;15.90;99.90;;;;;;5067011;28;20542;-70
2021/10/29 13:58:48;;;;;;;5.93;3.80;;;15.90;99.90;;;;;;5053337;28;20541;-70
2021/10/29 14:34:24;;;;;;;4.67;3.50;;;15.70;99.90;;;;;;5048516;28;20413;-69
2021/10/29 14:39:34;;;;;;;5.03;3.60;;;15.80;99.90;;;;;;5069513;28;20936;-69
2021/10/29 14:42:11;;;;;;;5.20;4.70;;;15.80;99.90;;;;;;5069651;28;20758;-69
2021/10/29 15:01:23;;;;;;;5.33;4.83;;;15.60;99.90;;;;;;5049312;28;20434;-68
2021/10/29 15:06:51;;;;;;;5.07;3.80;;;15.60;99.90;;;;;;5056315;28;20547;-69
2021/10/29 15:17:44;;;;;;;5.10;4.57;;;15.50;99.90;;;;;;5110061;27;20506;-69
2021/10/29 15:25:55;;;;;;;6.70;5.80;;;15.40;99.90;;;;;;5074649;28;20496;-69
2021/10/29 15:28:31;;;;;;;13.83;9.30;;;15.40;99.90;;;;;;5089365;28;20939;-70
2021/10/29 15:42:18;;;;;;;5.53;4.53;;;15.30;99.90;;;;;;5074208;28;20416;-68
2021/10/29 15:44:46;;;;;;;7.30;4.30;;;15.30;99.90;;;;;;5089077;28;20815;-68
2021/10/29 15:47:22;;;;;;;6.33;3.93;;;15.20;99.90;;;;;;5088785;28;20458;-68
2021/10/29 15:49:48;;;;;;;4.80;3.60;;;15.20;99.90;;;;;;5088651;28;20503;-68
2021/10/29 15:52:17;;;;;;;6.20;4.00;;;15.20;99.90;;;;;;5089051;28;20475;-68
2021/10/29 15:54:50;;;;;;;4.83;4.43;;;15.10;99.90;;;;;;5088519;28;20401;-70
2021/10/29 15:57:23;;;;;;;5.90;5.30;;;15.10;99.90;;;;;;5089272;28;20813;-70
2021/10/29 16:00:03;;;;;;;5.70;3.93;;;15.00;99.90;;;;;;5088792;28;20748;-71
2021/10/29 16:18:54;;;;;;;4.70;3.90;;;14.80;99.90;;;;;;5108534;28;20494;-69
2021/10/29 16:21:20;;;;;;;5.53;4.93;;;14.70;99.90;;;;;;5108577;28;20427;-70
2021/10/29 16:23:45;;;;;;;6.63;5.40;;;14.70;99.90;;;;;;5108143;28;20238;-71
2021/10/29 16:26:14;;;;;;;6.70;5.40;;;14.60;99.90;;;;;;5109412;28;20910;-70
2021/10/29 16:28:41;;;;;;;4.97;4.43;;;14.60;99.90;;;;;;5109597;28;20264;-69
2021/10/29 16:31:09;;;;;;;5.33;4.40;;;14.60;99.90;;;;;;5097396;28;20422;-69
2021/10/29 16:33:36;;;;;;;4.53;4.10;;;14.50;99.90;;;;;;5089026;28;20388;-69
2021/10/29 16:36:02;;;;;;;4.83;4.43;;;14.50;99.90;;;;;;5089217;28;20405;-70
2021/10/29 16:38:30;;;;;;;6.73;4.73;;;14.50;99.90;;;;;;5088711;28;20846;-70
2021/10/29 16:40:55;;;;;;;8.57;5.87;;;14.40;99.90;;;;;;5088946;28;20395;-69
2021/10/29 16:43:22;;;;;;;10.00;5.97;;;14.40;99.90;;;;;;5088681;28;20440;-69
2021/10/29 16:45:49;;;;;;;6.63;5.43;;;14.40;99.90;;;;;;5097900;28;20803;-69
2021/10/29 16:48:17;;;;;;;6.30;5.70;;;14.40;99.90;;;;;;5103732;28;20462;-69
2021/10/29 16:50:44;;;;;;;7.63;6.73;;;14.30;99.90;;;;;;5108989;28;20426;-70
2021/10/29 16:53:10;;;;;;;7.47;4.70;;;14.30;99.90;;;;;;5109141;28;20443;-69
2021/10/29 16:55:38;;;;;;;6.70;5.40;;;14.30;99.90;;;;;;5108913;28;20753;-68
2021/10/29 16:58:04;;;;;;;6.27;5.43;;;14.20;99.90;;;;;;5108955;28;20472;-68
2021/10/29 17:00:29;;;;;;;10.17;6.07;;;14.20;99.90;;;;;;5088073;28;20446;-68
2021/10/29 17:02:55;;;;;;;7.37;5.17;;;14.20;99.90;;;;;;5088330;28;20402;-69
2021/10/29 17:05:21;;;;;;;11.80;10.10;;;14.20;99.90;;;;;;5088242;28;20257;-68
2021/10/29 17:07:46;;;;;;;11.13;8.40;;;14.20;99.90;;;;;;5088279;28;20260;-68
2021/10/29 17:10:15;;;;;;;8.50;7.03;;;14.10;99.90;;;;;;5088166;28;20171;-68
2021/10/29 17:12:41;;;;;;;7.20;6.20;;;14.10;99.90;;;;;;5088278;28;20202;-68
2021/10/29 17:15:10;;;;;;;8.70;6.07;;;14.10;99.90;;;;;;5082009;28;20405;-69
2021/10/29 17:17:35;;;;;;;6.30;5.70;;;14.10;99.90;;;;;;5074689;28;20387;-68
2021/10/29 17:20:03;;;;;;;8.53;7.63;;;14.10;99.90;;;;;;5074696;28;20497;-69
2021/10/29 17:22:28;;;;;;;5.20;4.50;;;14.20;99.90;;;;;;5074712;28;20185;-69
2021/10/29 17:24:54;;;;;;;5.43;4.83;;;14.20;99.90;;;;;;5074509;28;20981;-69
2021/10/29 17:27:20;;;;;;;8.63;6.77;;;14.20;99.90;;;;;;5074611;28;20197;-68
2021/10/29 17:29:45;;;;;;;9.73;8.60;;;14.20;99.90;;;;;;5073899;28;20180;-68
2021/10/29 17:32:12;;;;;;;8.50;6.50;;;14.20;99.90;;;;;;5074548;28;20154;-70
2021/10/29 17:34:39;;;;;;;6.07;5.10;;;14.20;99.90;;;;;;5074721;28;20149;-69